YAYE/AYQ METAR and TAF weather

Enter ICAO airport designator
Station Type Date Time Source
YAYE METAR 2021/07/31 00:00 UTC NOAA

YAYE 310000Z AUTO 32005KT 9999 // NCD 18/06 Q1014


Station Type Date Time Source
YAYE Decoded METAR 2021/07/31 00:00 UTC NOAA

Ayers Rock, Australia (YAYE) 25-11S 130-58E
Jul 30, 2021 - 08:00 PM EDT / 2021.07.31 0000 UTC
Wind: from the NW (320 degrees) at 6 MPH (5 KT):0
Visibility: greater than 7 mile(s):0
Temperature: 64 F (18 C)
Dew Point: 42 F (6 C)
Relative Humidity: 45%
Pressure (altimeter): 29.94 in. Hg (1014 hPa)
ob: YAYE 310000Z AUTO 32005KT 9999 // NCD 18/06 Q1014
cycle: 0

Station Type Date Time Source
YAYE TAF UTC NOAA

Error!

Example: see airport list